sensor_id;sensor_type;location;lat;lon;timestamp;P1;durP1;ratioP1;P2;durP2;ratioP2
11313;SDS011;5712;48.858;9.206;2022-09-29T00:00:47;7.30;;;4.50;;
11313;SDS011;5712;48.858;9.206;2022-09-29T00:03:14;7.17;;;4.67;;
11313;SDS011;5712;48.858;9.206;2022-09-29T00:05:45;8.57;;;5.03;;
11313;SDS011;5712;48.858;9.206;2022-09-29T00:08:13;8.80;;;4.80;;
11313;SDS011;5712;48.858;9.206;2022-09-29T00:10:42;7.40;;;5.33;;
11313;SDS011;5712;48.858;9.206;2022-09-29T00:13:09;7.40;;;5.10;;
11313;SDS011;5712;48.858;9.206;2022-09-29T00:15:35;8.23;;;5.43;;
11313;SDS011;5712;48.858;9.206;2022-09-29T00:18:02;7.73;;;5.17;;
11313;SDS011;5712;48.858;9.206;2022-09-29T00:20:29;8.97;;;5.63;;
11313;SDS011;5712;48.858;9.206;2022-09-29T00:22:56;6.87;;;5.10;;
11313;SDS011;5712;48.858;9.206;2022-09-29T00:25:23;8.80;;;4.63;;
11313;SDS011;5712;48.858;9.206;2022-09-29T00:27:51;6.37;;;5.20;;
11313;SDS011;5712;48.858;9.206;2022-09-29T00:30:18;6.70;;;5.07;;
11313;SDS011;5712;48.858;9.206;2022-09-29T00:32:44;7.13;;;4.93;;
11313;SDS011;5712;48.858;9.206;2022-09-29T00:35:11;7.33;;;5.27;;
11313;SDS011;5712;48.858;9.206;2022-09-29T00:37:37;8.13;;;5.73;;
11313;SDS011;5712;48.858;9.206;2022-09-29T00:40:05;7.37;;;5.50;;
11313;SDS011;5712;48.858;9.206;2022-09-29T00:42:32;7.63;;;5.47;;
11313;SDS011;5712;48.858;9.206;2022-09-29T00:45:03;7.30;;;5.30;;
11313;SDS011;5712;48.858;9.206;2022-09-29T00:47:42;7.30;;;5.50;;
11313;SDS011;5712;48.858;9.206;2022-09-29T00:50:13;7.37;;;5.57;;
11313;SDS011;5712;48.858;9.206;2022-09-29T00:52:46;7.67;;;5.87;;
11313;SDS011;5712;48.858;9.206;2022-09-29T00:55:17;7.47;;;5.47;;
11313;SDS011;5712;48.858;9.206;2022-09-29T00:57:50;8.90;;;5.60;;
11313;SDS011;5712;48.858;9.206;2022-09-29T01:00:22;8.07;;;5.20;;
11313;SDS011;5712;48.858;9.206;2022-09-29T01:02:52;7.70;;;5.10;;
11313;SDS011;5712;48.858;9.206;2022-09-29T01:05:23;7.20;;;5.53;;
11313;SDS011;5712;48.858;9.206;2022-09-29T01:07:56;7.47;;;5.80;;
11313;SDS011;5712;48.858;9.206;2022-09-29T01:10:26;6.87;;;5.30;;
11313;SDS011;5712;48.858;9.206;2022-09-29T01:12:53;7.87;;;5.20;;
11313;SDS011;5712;48.858;9.206;2022-09-29T01:15:20;6.10;;;4.90;;
11313;SDS011;5712;48.858;9.206;2022-09-29T01:17:49;5.93;;;5.10;;
11313;SDS011;5712;48.858;9.206;2022-09-29T01:20:16;7.33;;;5.07;;
11313;SDS011;5712;48.858;9.206;2022-09-29T01:25:50;9.27;;;6.00;;
11313;SDS011;5712;48.858;9.206;2022-09-29T01:31:31;8.23;;;6.20;;
11313;SDS011;5712;48.858;9.206;2022-09-29T01:34:05;7.20;;;5.70;;
11313;SDS011;5712;48.858;9.206;2022-09-29T01:36:39;9.67;;;6.47;;
11313;SDS011;5712;48.858;9.206;2022-09-29T01:39:13;12.57;;;6.73;;
11313;SDS011;5712;48.858;9.206;2022-09-29T01:41:46;9.73;;;6.40;;
11313;SDS011;5712;48.858;9.206;2022-09-29T01:44:18;10.90;;;6.30;;
11313;SDS011;5712;48.858;9.206;2022-09-29T01:46:54;10.13;;;7.00;;
11313;SDS011;5712;48.858;9.206;2022-09-29T01:49:25;9.37;;;6.50;;
11313;SDS011;5712;48.858;9.206;2022-09-29T01:51:58;8.10;;;6.40;;
11313;SDS011;5712;48.858;9.206;2022-09-29T01:54:29;7.83;;;6.70;;
11313;SDS011;5712;48.858;9.206;2022-09-29T01:57:02;8.00;;;6.57;;
11313;SDS011;5712;48.858;9.206;2022-09-29T01:59:36;8.87;;;6.77;;
11313;SDS011;5712;48.858;9.206;2022-09-29T02:02:10;7.87;;;6.27;;
11313;SDS011;5712;48.858;9.206;2022-09-29T02:04:41;9.97;;;6.90;;
11313;SDS011;5712;48.858;9.206;2022-09-29T02:07:12;10.43;;;6.77;;
11313;SDS011;5712;48.858;9.206;2022-09-29T02:09:44;8.10;;;6.43;;
11313;SDS011;5712;48.858;9.206;2022-09-29T02:12:15;9.50;;;6.90;;
11313;SDS011;5712;48.858;9.206;2022-09-29T02:14:47;10.17;;;7.13;;
11313;SDS011;5712;48.858;9.206;2022-09-29T02:17:17;10.60;;;6.73;;
11313;SDS011;5712;48.858;9.206;2022-09-29T02:19:46;10.03;;;6.70;;
11313;SDS011;5712;48.858;9.206;2022-09-29T02:22:15;10.33;;;6.90;;
11313;SDS011;5712;48.858;9.206;2022-09-29T02:24:42;8.90;;;6.90;;
11313;SDS011;5712;48.858;9.206;2022-09-29T02:27:09;9.37;;;6.87;;
11313;SDS011;5712;48.858;9.206;2022-09-29T02:29:37;9.37;;;6.13;;
11313;SDS011;5712;48.858;9.206;2022-09-29T02:32:04;10.30;;;6.27;;
11313;SDS011;5712;48.858;9.206;2022-09-29T02:34:36;9.73;;;6.13;;
11313;SDS011;5712;48.858;9.206;2022-09-29T02:37:10;10.57;;;6.70;;
11313;SDS011;5712;48.858;9.206;2022-09-29T02:39:47;10.43;;;6.60;;
11313;SDS011;5712;48.858;9.206;2022-09-29T02:42:27;7.60;;;6.00;;
11313;SDS011;5712;48.858;9.206;2022-09-29T02:45:06;9.80;;;6.87;;
11313;SDS011;5712;48.858;9.206;2022-09-29T02:47:50;7.37;;;6.17;;
11313;SDS011;5712;48.858;9.206;2022-09-29T02:53:30;8.53;;;5.80;;
11313;SDS011;5712;48.858;9.206;2022-09-29T02:56:09;10.23;;;6.47;;
11313;SDS011;5712;48.858;9.206;2022-09-29T02:58:43;8.03;;;6.03;;
11313;SDS011;5712;48.858;9.206;2022-09-29T03:01:15;7.17;;;6.03;;
11313;SDS011;5712;48.858;9.206;2022-09-29T03:03:42;8.50;;;6.00;;
11313;SDS011;5712;48.858;9.206;2022-09-29T03:06:10;10.40;;;6.17;;
11313;SDS011;5712;48.858;9.206;2022-09-29T03:08:38;7.77;;;6.20;;
11313;SDS011;5712;48.858;9.206;2022-09-29T03:11:05;7.60;;;5.43;;
11313;SDS011;5712;48.858;9.206;2022-09-29T03:13:32;6.93;;;5.57;;
11313;SDS011;5712;48.858;9.206;2022-09-29T03:15:58;8.13;;;5.83;;
11313;SDS011;5712;48.858;9.206;2022-09-29T03:18:25;8.67;;;5.80;;
11313;SDS011;5712;48.858;9.206;2022-09-29T03:20:52;7.23;;;5.67;;
11313;SDS011;5712;48.858;9.206;2022-09-29T03:23:20;5.30;;;4.07;;
11313;SDS011;5712;48.858;9.206;2022-09-29T03:25:47;6.03;;;4.10;;
11313;SDS011;5712;48.858;9.206;2022-09-29T03:28:14;7.47;;;4.27;;
11313;SDS011;5712;48.858;9.206;2022-09-29T03:30:41;6.33;;;4.40;;
11313;SDS011;5712;48.858;9.206;2022-09-29T03:33:09;4.77;;;4.03;;
11313;SDS011;5712;48.858;9.206;2022-09-29T03:35:35;5.77;;;5.17;;
11313;SDS011;5712;48.858;9.206;2022-09-29T03:38:02;4.47;;;4.03;;
11313;SDS011;5712;48.858;9.206;2022-09-29T03:40:30;5.17;;;4.20;;
11313;SDS011;5712;48.858;9.206;2022-09-29T03:42:57;5.17;;;4.50;;
11313;SDS011;5712;48.858;9.206;2022-09-29T03:45:23;6.03;;;4.70;;
11313;SDS011;5712;48.858;9.206;2022-09-29T03:47:50;5.50;;;4.67;;
11313;SDS011;5712;48.858;9.206;2022-09-29T03:50:17;5.30;;;4.60;;
11313;SDS011;5712;48.858;9.206;2022-09-29T03:52:43;7.00;;;4.70;;
11313;SDS011;5712;48.858;9.206;2022-09-29T03:55:10;7.43;;;5.00;;
11313;SDS011;5712;48.858;9.206;2022-09-29T03:57:38;7.23;;;4.80;;
11313;SDS011;5712;48.858;9.206;2022-09-29T04:00:05;8.37;;;5.00;;
11313;SDS011;5712;48.858;9.206;2022-09-29T04:02:32;7.87;;;4.90;;
11313;SDS011;5712;48.858;9.206;2022-09-29T04:04:59;5.87;;;5.23;;
11313;SDS011;5712;48.858;9.206;2022-09-29T04:07:26;9.10;;;5.53;;
11313;SDS011;5712;48.858;9.206;2022-09-29T04:09:53;6.33;;;5.13;;
11313;SDS011;5712;48.858;9.206;2022-09-29T04:12:19;7.13;;;5.20;;
11313;SDS011;5712;48.858;9.206;2022-09-29T04:14:47;6.67;;;5.10;;
11313;SDS011;5712;48.858;9.206;2022-09-29T04:17:14;5.10;;;4.37;;
11313;SDS011;5712;48.858;9.206;2022-09-29T04:19:40;7.10;;;4.77;;
11313;SDS011;5712;48.858;9.206;2022-09-29T04:22:07;6.10;;;4.17;;
11313;SDS011;5712;48.858;9.206;2022-09-29T04:24:35;5.20;;;4.20;;
11313;SDS011;5712;48.858;9.206;2022-09-29T04:27:02;6.07;;;3.80;;
11313;SDS011;5712;48.858;9.206;2022-09-29T04:29:29;5.27;;;4.43;;
11313;SDS011;5712;48.858;9.206;2022-09-29T04:31:57;4.60;;;4.10;;
11313;SDS011;5712;48.858;9.206;2022-09-29T04:34:24;5.90;;;4.47;;
11313;SDS011;5712;48.858;9.206;2022-09-29T04:36:50;6.03;;;3.97;;
11313;SDS011;5712;48.858;9.206;2022-09-29T04:39:17;5.47;;;4.37;;
11313;SDS011;5712;48.858;9.206;2022-09-29T04:41:44;4.77;;;4.27;;
11313;SDS011;5712;48.858;9.206;2022-09-29T04:44:10;6.87;;;4.60;;
11313;SDS011;5712;48.858;9.206;2022-09-29T04:46:37;6.53;;;5.00;;
11313;SDS011;5712;48.858;9.206;2022-09-29T04:49:05;5.37;;;4.63;;
11313;SDS011;5712;48.858;9.206;2022-09-29T04:51:32;5.97;;;4.37;;
11313;SDS011;5712;48.858;9.206;2022-09-29T04:53:58;4.80;;;4.27;;
11313;SDS011;5712;48.858;9.206;2022-09-29T04:56:25;6.03;;;4.73;;
11313;SDS011;5712;48.858;9.206;2022-09-29T04:58:55;5.20;;;4.70;;
11313;SDS011;5712;48.858;9.206;2022-09-29T05:01:22;5.73;;;4.83;;
11313;SDS011;5712;48.858;9.206;2022-09-29T05:03:48;5.43;;;4.93;;
11313;SDS011;5712;48.858;9.206;2022-09-29T05:06:16;5.80;;;4.90;;
11313;SDS011;5712;48.858;9.206;2022-09-29T05:08:43;5.50;;;5.00;;
11313;SDS011;5712;48.858;9.206;2022-09-29T05:11:10;5.43;;;4.70;;
11313;SDS011;5712;48.858;9.206;2022-09-29T05:13:36;5.47;;;4.77;;
11313;SDS011;5712;48.858;9.206;2022-09-29T05:16:03;5.77;;;5.17;;
11313;SDS011;5712;48.858;9.206;2022-09-29T05:18:30;5.83;;;4.83;;
11313;SDS011;5712;48.858;9.206;2022-09-29T05:21:01;7.80;;;5.17;;
11313;SDS011;5712;48.858;9.206;2022-09-29T05:23:30;6.20;;;5.10;;
11313;SDS011;5712;48.858;9.206;2022-09-29T05:25:59;6.40;;;4.70;;
11313;SDS011;5712;48.858;9.206;2022-09-29T05:28:26;7.40;;;5.10;;
11313;SDS011;5712;48.858;9.206;2022-09-29T05:30:53;6.23;;;4.60;;
11313;SDS011;5712;48.858;9.206;2022-09-29T05:33:19;6.67;;;4.87;;
11313;SDS011;5712;48.858;9.206;2022-09-29T05:35:46;6.93;;;4.90;;
11313;SDS011;5712;48.858;9.206;2022-09-29T05:38:13;6.13;;;5.53;;
11313;SDS011;5712;48.858;9.206;2022-09-29T05:40:41;6.40;;;4.80;;
11313;SDS011;5712;48.858;9.206;2022-09-29T05:43:08;5.23;;;4.40;;
11313;SDS011;5712;48.858;9.206;2022-09-29T05:45:35;5.63;;;4.70;;
11313;SDS011;5712;48.858;9.206;2022-09-29T05:48:02;5.73;;;4.80;;
11313;SDS011;5712;48.858;9.206;2022-09-29T05:50:28;7.07;;;5.17;;
11313;SDS011;5712;48.858;9.206;2022-09-29T05:52:55;6.07;;;4.93;;
11313;SDS011;5712;48.858;9.206;2022-09-29T05:55:27;7.50;;;5.20;;
11313;SDS011;5712;48.858;9.206;2022-09-29T05:57:55;7.37;;;5.40;;
11313;SDS011;5712;48.858;9.206;2022-09-29T06:00:21;9.20;;;5.30;;
11313;SDS011;5712;48.858;9.206;2022-09-29T06:02:48;10.30;;;5.70;;
11313;SDS011;5712;48.858;9.206;2022-09-29T06:05:14;6.57;;;5.80;;
11313;SDS011;5712;48.858;9.206;2022-09-29T06:07:41;8.80;;;6.50;;
11313;SDS011;5712;48.858;9.206;2022-09-29T06:10:08;7.63;;;5.50;;
11313;SDS011;5712;48.858;9.206;2022-09-29T06:12:35;6.27;;;5.10;;
11313;SDS011;5712;48.858;9.206;2022-09-29T06:15:04;6.57;;;5.10;;
11313;SDS011;5712;48.858;9.206;2022-09-29T06:17:31;7.60;;;5.03;;
11313;SDS011;5712;48.858;9.206;2022-09-29T06:19:58;5.83;;;4.73;;
11313;SDS011;5712;48.858;9.206;2022-09-29T06:22:25;7.13;;;5.10;;
11313;SDS011;5712;48.858;9.206;2022-09-29T06:24:52;5.97;;;5.00;;
11313;SDS011;5712;48.858;9.206;2022-09-29T06:27:19;6.77;;;4.67;;
11313;SDS011;5712;48.858;9.206;2022-09-29T06:29:46;9.07;;;5.47;;
11313;SDS011;5712;48.858;9.206;2022-09-29T06:32:14;7.30;;;5.37;;
11313;SDS011;5712;48.858;9.206;2022-09-29T06:34:41;8.23;;;5.47;;
11313;SDS011;5712;48.858;9.206;2022-09-29T06:37:21;7.37;;;5.50;;
11313;SDS011;5712;48.858;9.206;2022-09-29T06:40:00;8.03;;;5.50;;
11313;SDS011;5712;48.858;9.206;2022-09-29T06:42:27;7.10;;;5.93;;
11313;SDS011;5712;48.858;9.206;2022-09-29T06:44:53;7.67;;;5.90;;
11313;SDS011;5712;48.858;9.206;2022-09-29T06:47:21;7.53;;;6.17;;
11313;SDS011;5712;48.858;9.206;2022-09-29T06:49:48;6.93;;;5.73;;
11313;SDS011;5712;48.858;9.206;2022-09-29T06:52:15;6.57;;;5.13;;
11313;SDS011;5712;48.858;9.206;2022-09-29T06:54:42;5.77;;;5.17;;
11313;SDS011;5712;48.858;9.206;2022-09-29T06:57:09;7.07;;;5.27;;
11313;SDS011;5712;48.858;9.206;2022-09-29T06:59:35;7.03;;;5.90;;
11313;SDS011;5712;48.858;9.206;2022-09-29T07:02:02;6.77;;;5.33;;
11313;SDS011;5712;48.858;9.206;2022-09-29T07:04:30;8.73;;;6.30;;
11313;SDS011;5712;48.858;9.206;2022-09-29T07:06:57;7.87;;;5.63;;
11313;SDS011;5712;48.858;9.206;2022-09-29T07:09:23;6.27;;;5.67;;
11313;SDS011;5712;48.858;9.206;2022-09-29T07:11:50;7.37;;;5.80;;
11313;SDS011;5712;48.858;9.206;2022-09-29T07:14:18;6.27;;;5.37;;
11313;SDS011;5712;48.858;9.206;2022-09-29T07:16:46;8.20;;;6.40;;
11313;SDS011;5712;48.858;9.206;2022-09-29T07:19:13;6.87;;;5.77;;
11313;SDS011;5712;48.858;9.206;2022-09-29T07:21:43;8.10;;;5.87;;
11313;SDS011;5712;48.858;9.206;2022-09-29T07:24:10;9.20;;;6.47;;
11313;SDS011;5712;48.858;9.206;2022-09-29T07:26:37;8.83;;;6.40;;
11313;SDS011;5712;48.858;9.206;2022-09-29T07:29:03;7.90;;;5.50;;
11313;SDS011;5712;48.858;9.206;2022-09-29T07:31:30;7.77;;;5.23;;
11313;SDS011;5712;48.858;9.206;2022-09-29T07:33:57;8.73;;;6.23;;
11313;SDS011;5712;48.858;9.206;2022-09-29T07:36:23;7.63;;;5.93;;
11313;SDS011;5712;48.858;9.206;2022-09-29T07:38:51;7.10;;;6.13;;
11313;SDS011;5712;48.858;9.206;2022-09-29T07:41:19;6.93;;;5.90;;
11313;SDS011;5712;48.858;9.206;2022-09-29T07:43:46;9.23;;;6.17;;
11313;SDS011;5712;48.858;9.206;2022-09-29T07:46:13;7.57;;;6.10;;
11313;SDS011;5712;48.858;9.206;2022-09-29T07:48:41;8.27;;;5.80;;
11313;SDS011;5712;48.858;9.206;2022-09-29T07:51:09;9.07;;;6.57;;
11313;SDS011;5712;48.858;9.206;2022-09-29T07:53:37;8.03;;;6.70;;
11313;SDS011;5712;48.858;9.206;2022-09-29T07:56:07;8.13;;;6.10;;
11313;SDS011;5712;48.858;9.206;2022-09-29T07:58:34;8.50;;;6.50;;
11313;SDS011;5712;48.858;9.206;2022-09-29T08:01:02;8.07;;;6.47;;
11313;SDS011;5712;48.858;9.206;2022-09-29T08:03:30;8.63;;;5.93;;
11313;SDS011;5712;48.858;9.206;2022-09-29T08:05:57;7.50;;;6.70;;
11313;SDS011;5712;48.858;9.206;2022-09-29T08:08:24;9.73;;;6.53;;
11313;SDS011;5712;48.858;9.206;2022-09-29T08:10:51;7.00;;;6.30;;
11313;SDS011;5712;48.858;9.206;2022-09-29T08:13:19;7.87;;;6.00;;
11313;SDS011;5712;48.858;9.206;2022-09-29T08:15:46;7.00;;;5.87;;
11313;SDS011;5712;48.858;9.206;2022-09-29T08:18:12;8.10;;;5.90;;
11313;SDS011;5712;48.858;9.206;2022-09-29T08:20:39;8.40;;;6.27;;
11313;SDS011;5712;48.858;9.206;2022-09-29T08:23:06;7.80;;;5.73;;
11313;SDS011;5712;48.858;9.206;2022-09-29T08:25:32;9.73;;;5.80;;
11313;SDS011;5712;48.858;9.206;2022-09-29T08:28:00;8.33;;;6.10;;
11313;SDS011;5712;48.858;9.206;2022-09-29T08:30:29;6.77;;;6.07;;
11313;SDS011;5712;48.858;9.206;2022-09-29T08:32:56;6.33;;;5.30;;
11313;SDS011;5712;48.858;9.206;2022-09-29T08:35:23;6.57;;;5.33;;
11313;SDS011;5712;48.858;9.206;2022-09-29T08:37:50;7.23;;;5.40;;
11313;SDS011;5712;48.858;9.206;2022-09-29T08:40:19;9.77;;;5.67;;
11313;SDS011;5712;48.858;9.206;2022-09-29T08:42:48;8.87;;;5.97;;
11313;SDS011;5712;48.858;9.206;2022-09-29T08:45:24;7.83;;;5.20;;
11313;SDS011;5712;48.858;9.206;2022-09-29T08:47:58;7.80;;;5.00;;
11313;SDS011;5712;48.858;9.206;2022-09-29T08:50:32;7.37;;;5.07;;
11313;SDS011;5712;48.858;9.206;2022-09-29T08:53:04;5.63;;;4.80;;
11313;SDS011;5712;48.858;9.206;2022-09-29T08:55:37;7.93;;;5.27;;
11313;SDS011;5712;48.858;9.206;2022-09-29T08:58:11;6.73;;;5.20;;
11313;SDS011;5712;48.858;9.206;2022-09-29T09:00:41;7.43;;;4.97;;
11313;SDS011;5712;48.858;9.206;2022-09-29T09:03:22;7.83;;;4.80;;
11313;SDS011;5712;48.858;9.206;2022-09-29T09:06:15;5.83;;;4.73;;
11313;SDS011;5712;48.858;9.206;2022-09-29T09:09:01;5.27;;;4.27;;
11313;SDS011;5712;48.858;9.206;2022-09-29T09:12:00;5.53;;;4.70;;
11313;SDS011;5712;48.858;9.206;2022-09-29T09:14:50;6.20;;;4.93;;
11313;SDS011;5712;48.858;9.206;2022-09-29T09:17:28;4.80;;;4.30;;
11313;SDS011;5712;48.858;9.206;2022-09-29T09:20:15;8.03;;;5.57;;
11313;SDS011;5712;48.858;9.206;2022-09-29T09:22:54;6.60;;;4.70;;
11313;SDS011;5712;48.858;9.206;2022-09-29T09:25:26;6.00;;;4.50;;
11313;SDS011;5712;48.858;9.206;2022-09-29T09:27:58;6.00;;;4.83;;
11313;SDS011;5712;48.858;9.206;2022-09-29T09:30:32;5.23;;;4.50;;
11313;SDS011;5712;48.858;9.206;2022-09-29T09:33:04;6.47;;;4.60;;
11313;SDS011;5712;48.858;9.206;2022-09-29T09:35:38;4.77;;;4.27;;
11313;SDS011;5712;48.858;9.206;2022-09-29T09:38:10;4.30;;;3.90;;
11313;SDS011;5712;48.858;9.206;2022-09-29T09:40:41;5.03;;;4.33;;
11313;SDS011;5712;48.858;9.206;2022-09-29T09:43:12;4.70;;;3.80;;
11313;SDS011;5712;48.858;9.206;2022-09-29T09:45:44;5.10;;;3.90;;
11313;SDS011;5712;48.858;9.206;2022-09-29T09:48:18;3.90;;;3.50;;
11313;SDS011;5712;48.858;9.206;2022-09-29T09:50:49;5.63;;;3.63;;
11313;SDS011;5712;48.858;9.206;2022-09-29T09:53:18;4.83;;;3.57;;
11313;SDS011;5712;48.858;9.206;2022-09-29T09:55:50;4.80;;;3.67;;
11313;SDS011;5712;48.858;9.206;2022-09-29T09:58:33;5.43;;;3.60;;
11313;SDS011;5712;48.858;9.206;2022-09-29T10:01:25;4.20;;;3.07;;
11313;SDS011;5712;48.858;9.206;2022-09-29T10:03:52;3.23;;;2.93;;
11313;SDS011;5712;48.858;9.206;2022-09-29T10:06:20;3.03;;;2.70;;
11313;SDS011;5712;48.858;9.206;2022-09-29T10:08:47;3.20;;;2.77;;
11313;SDS011;5712;48.858;9.206;2022-09-29T10:11:20;3.07;;;2.77;;
11313;SDS011;5712;48.858;9.206;2022-09-29T10:13:49;5.33;;;2.93;;
11313;SDS011;5712;48.858;9.206;2022-09-29T10:16:26;3.43;;;2.37;;
11313;SDS011;5712;48.858;9.206;2022-09-29T10:18:57;3.53;;;2.20;;
11313;SDS011;5712;48.858;9.206;2022-09-29T10:21:35;2.93;;;2.47;;
11313;SDS011;5712;48.858;9.206;2022-09-29T10:24:03;4.43;;;2.60;;
11313;SDS011;5712;48.858;9.206;2022-09-29T10:26:32;3.90;;;2.50;;
11313;SDS011;5712;48.858;9.206;2022-09-29T10:29:02;3.47;;;2.77;;
11313;SDS011;5712;48.858;9.206;2022-09-29T10:31:56;5.93;;;2.70;;
11313;SDS011;5712;48.858;9.206;2022-09-29T10:34:26;3.13;;;2.70;;
11313;SDS011;5712;48.858;9.206;2022-09-29T10:36:56;3.30;;;2.70;;
11313;SDS011;5712;48.858;9.206;2022-09-29T10:39:30;3.50;;;2.70;;
11313;SDS011;5712;48.858;9.206;2022-09-29T10:41:58;3.33;;;3.00;;
11313;SDS011;5712;48.858;9.206;2022-09-29T10:44:29;4.37;;;3.23;;
11313;SDS011;5712;48.858;9.206;2022-09-29T10:46:58;5.37;;;3.30;;
11313;SDS011;5712;48.858;9.206;2022-09-29T10:49:25;4.77;;;3.17;;
11313;SDS011;5712;48.858;9.206;2022-09-29T10:51:58;4.77;;;3.20;;
11313;SDS011;5712;48.858;9.206;2022-09-29T10:54:28;6.27;;;3.30;;
11313;SDS011;5712;48.858;9.206;2022-09-29T10:56:57;4.40;;;2.90;;
11313;SDS011;5712;48.858;9.206;2022-09-29T10:59:24;3.20;;;2.53;;
11313;SDS011;5712;48.858;9.206;2022-09-29T11:01:53;6.57;;;3.23;;
11313;SDS011;5712;48.858;9.206;2022-09-29T11:04:23;4.03;;;2.80;;
11313;SDS011;5712;48.858;9.206;2022-09-29T11:06:53;4.07;;;2.93;;
11313;SDS011;5712;48.858;9.206;2022-09-29T11:09:29;4.03;;;2.50;;
11313;SDS011;5712;48.858;9.206;2022-09-29T11:12:01;5.20;;;3.07;;
11313;SDS011;5712;48.858;9.206;2022-09-29T11:14:28;4.80;;;2.73;;
11313;SDS011;5712;48.858;9.206;2022-09-29T11:16:57;2.70;;;2.50;;
11313;SDS011;5712;48.858;9.206;2022-09-29T11:19:24;3.47;;;2.93;;
11313;SDS011;5712;48.858;9.206;2022-09-29T11:27:57;3.13;;;2.30;;
11313;SDS011;5712;48.858;9.206;2022-09-29T11:30:38;3.00;;;2.70;;
11313;SDS011;5712;48.858;9.206;2022-09-29T11:33:15;3.67;;;2.57;;
11313;SDS011;5712;48.858;9.206;2022-09-29T11:35:54;3.53;;;2.50;;
11313;SDS011;5712;48.858;9.206;2022-09-29T11:38:30;4.07;;;2.80;;
11313;SDS011;5712;48.858;9.206;2022-09-29T11:41:16;4.27;;;2.77;;
11313;SDS011;5712;48.858;9.206;2022-09-29T11:43:59;2.93;;;2.63;;
11313;SDS011;5712;48.858;9.206;2022-09-29T11:46:36;3.00;;;2.70;;
11313;SDS011;5712;48.858;9.206;2022-09-29T11:49:18;4.70;;;2.70;;
11313;SDS011;5712;48.858;9.206;2022-09-29T11:51:59;4.23;;;2.40;;
11313;SDS011;5712;48.858;9.206;2022-09-29T11:57:38;3.77;;;2.20;;
11313;SDS011;5712;48.858;9.206;2022-09-29T12:00:19;2.60;;;1.90;;
11313;SDS011;5712;48.858;9.206;2022-09-29T12:05:49;3.10;;;2.13;;
11313;SDS011;5712;48.858;9.206;2022-09-29T12:08:29;3.20;;;1.60;;
11313;SDS011;5712;48.858;9.206;2022-09-29T12:11:10;3.13;;;1.90;;
11313;SDS011;5712;48.858;9.206;2022-09-29T12:13:47;3.23;;;1.73;;
11313;SDS011;5712;48.858;9.206;2022-09-29T12:16:20;2.50;;;1.50;;
11313;SDS011;5712;48.858;9.206;2022-09-29T12:18:51;2.00;;;1.60;;
11313;SDS011;5712;48.858;9.206;2022-09-29T12:21:27;2.03;;;1.63;;
11313;SDS011;5712;48.858;9.206;2022-09-29T12:23:57;1.73;;;1.50;;
11313;SDS011;5712;48.858;9.206;2022-09-29T12:26:27;2.00;;;1.60;;
11313;SDS011;5712;48.858;9.206;2022-09-29T12:28:59;2.47;;;1.50;;
11313;SDS011;5712;48.858;9.206;2022-09-29T12:31:29;2.50;;;1.53;;
11313;SDS011;5712;48.858;9.206;2022-09-29T12:33:59;1.73;;;1.50;;
11313;SDS011;5712;48.858;9.206;2022-09-29T12:36:35;2.80;;;1.60;;
11313;SDS011;5712;48.858;9.206;2022-09-29T12:39:17;3.00;;;1.70;;
11313;SDS011;5712;48.858;9.206;2022-09-29T12:42:13;2.00;;;1.40;;
11313;SDS011;5712;48.858;9.206;2022-09-29T12:44:49;2.63;;;1.50;;
11313;SDS011;5712;48.858;9.206;2022-09-29T12:47:22;2.77;;;1.60;;
11313;SDS011;5712;48.858;9.206;2022-09-29T12:49:59;2.13;;;1.60;;
11313;SDS011;5712;48.858;9.206;2022-09-29T12:52:32;2.43;;;1.63;;
11313;SDS011;5712;48.858;9.206;2022-09-29T12:55:06;1.80;;;1.43;;
11313;SDS011;5712;48.858;9.206;2022-09-29T12:57:42;1.67;;;1.37;;
11313;SDS011;5712;48.858;9.206;2022-09-29T13:00:15;2.03;;;1.50;;
11313;SDS011;5712;48.858;9.206;2022-09-29T13:02:58;1.40;;;1.30;;
11313;SDS011;5712;48.858;9.206;2022-09-29T13:05:49;1.70;;;1.60;;
11313;SDS011;5712;48.858;9.206;2022-09-29T13:08:35;3.27;;;1.90;;
11313;SDS011;5712;48.858;9.206;2022-09-29T13:11:33;1.70;;;1.50;;
11313;SDS011;5712;48.858;9.206;2022-09-29T13:14:23;2.23;;;1.20;;
11313;SDS011;5712;48.858;9.206;2022-09-29T13:17:18;2.23;;;1.20;;
11313;SDS011;5712;48.858;9.206;2022-09-29T13:20:09;1.93;;;1.20;;
11313;SDS011;5712;48.858;9.206;2022-09-29T13:23:01;2.70;;;1.40;;
11313;SDS011;5712;48.858;9.206;2022-09-29T13:25:51;2.47;;;1.50;;
11313;SDS011;5712;48.858;9.206;2022-09-29T13:28:28;2.87;;;1.47;;
11313;SDS011;5712;48.858;9.206;2022-09-29T13:30:58;2.73;;;1.70;;
11313;SDS011;5712;48.858;9.206;2022-09-29T13:33:29;1.40;;;1.30;;
11313;SDS011;5712;48.858;9.206;2022-09-29T13:35:56;2.00;;;1.37;;
11313;SDS011;5712;48.858;9.206;2022-09-29T13:38:24;3.80;;;1.93;;
11313;SDS011;5712;48.858;9.206;2022-09-29T13:41:10;2.70;;;1.70;;
11313;SDS011;5712;48.858;9.206;2022-09-29T13:46:36;2.87;;;1.53;;
11313;SDS011;5712;48.858;9.206;2022-09-29T13:49:13;1.67;;;1.50;;
11313;SDS011;5712;48.858;9.206;2022-09-29T13:51:42;2.40;;;2.00;;
11313;SDS011;5712;48.858;9.206;2022-09-29T14:03:03;3.00;;;2.53;;
11313;SDS011;5712;48.858;9.206;2022-09-29T14:05:37;2.30;;;2.00;;
11313;SDS011;5712;48.858;9.206;2022-09-29T14:08:12;3.27;;;2.20;;
11313;SDS011;5712;48.858;9.206;2022-09-29T14:10:45;3.63;;;1.83;;
11313;SDS011;5712;48.858;9.206;2022-09-29T14:13:18;3.27;;;1.53;;
11313;SDS011;5712;48.858;9.206;2022-09-29T14:15:50;3.87;;;3.43;;
11313;SDS011;5712;48.858;9.206;2022-09-29T14:18:27;2.77;;;1.60;;
11313;SDS011;5712;48.858;9.206;2022-09-29T14:20:59;3.17;;;1.70;;
11313;SDS011;5712;48.858;9.206;2022-09-29T14:23:47;1.97;;;1.67;;
11313;SDS011;5712;48.858;9.206;2022-09-29T14:29:13;3.30;;;1.60;;
11313;SDS011;5712;48.858;9.206;2022-09-29T14:31:47;3.50;;;1.63;;
11313;SDS011;5712;48.858;9.206;2022-09-29T14:34:17;2.20;;;2.00;;
11313;SDS011;5712;48.858;9.206;2022-09-29T14:36:48;3.40;;;1.80;;
11313;SDS011;5712;48.858;9.206;2022-09-29T14:39:16;2.43;;;1.97;;
11313;SDS011;5712;48.858;9.206;2022-09-29T14:41:44;2.80;;;1.80;;
11313;SDS011;5712;48.858;9.206;2022-09-29T14:44:15;1.77;;;1.40;;
11313;SDS011;5712;48.858;9.206;2022-09-29T14:50:17;1.87;;;1.53;;
11313;SDS011;5712;48.858;9.206;2022-09-29T14:53:25;3.03;;;1.80;;
11313;SDS011;5712;48.858;9.206;2022-09-29T14:56:14;2.60;;;1.77;;
11313;SDS011;5712;48.858;9.206;2022-09-29T14:58:54;1.97;;;1.70;;
11313;SDS011;5712;48.858;9.206;2022-09-29T15:01:28;3.30;;;1.77;;
11313;SDS011;5712;48.858;9.206;2022-09-29T15:03:56;4.03;;;1.90;;
11313;SDS011;5712;48.858;9.206;2022-09-29T15:06:30;3.47;;;2.17;;
11313;SDS011;5712;48.858;9.206;2022-09-29T15:08:59;2.57;;;2.17;;
11313;SDS011;5712;48.858;9.206;2022-09-29T15:11:28;16.60;;;9.43;;
11313;SDS011;5712;48.858;9.206;2022-09-29T15:13:59;10.07;;;5.60;;
11313;SDS011;5712;48.858;9.206;2022-09-29T15:16:28;5.97;;;2.73;;
11313;SDS011;5712;48.858;9.206;2022-09-29T15:19:08;7.30;;;3.17;;
11313;SDS011;5712;48.858;9.206;2022-09-29T15:21:46;8.37;;;3.80;;
11313;SDS011;5712;48.858;9.206;2022-09-29T15:24:26;29.57;;;9.47;;
11313;SDS011;5712;48.858;9.206;2022-09-29T15:27:07;5.17;;;1.93;;
11313;SDS011;5712;48.858;9.206;2022-09-29T15:29:38;2.30;;;1.53;;
11313;SDS011;5712;48.858;9.206;2022-09-29T15:32:10;1.93;;;1.53;;
11313;SDS011;5712;48.858;9.206;2022-09-29T15:34:47;3.00;;;1.30;;
11313;SDS011;5712;48.858;9.206;2022-09-29T15:37:14;2.57;;;1.53;;
11313;SDS011;5712;48.858;9.206;2022-09-29T15:39:46;2.67;;;1.87;;
11313;SDS011;5712;48.858;9.206;2022-09-29T15:42:19;53.90;;;23.30;;
11313;SDS011;5712;48.858;9.206;2022-09-29T15:44:51;76.67;;;31.87;;
11313;SDS011;5712;48.858;9.206;2022-09-29T15:47:22;22.67;;;11.83;;
11313;SDS011;5712;48.858;9.206;2022-09-29T15:49:57;38.10;;;28.63;;
11313;SDS011;5712;48.858;9.206;2022-09-29T15:52:32;29.17;;;23.00;;
11313;SDS011;5712;48.858;9.206;2022-09-29T15:55:03;4.03;;;3.23;;
11313;SDS011;5712;48.858;9.206;2022-09-29T15:57:40;3.07;;;1.50;;
11313;SDS011;5712;48.858;9.206;2022-09-29T16:03:18;2.43;;;1.60;;
11313;SDS011;5712;48.858;9.206;2022-09-29T16:06:05;2.83;;;1.80;;
11313;SDS011;5712;48.858;9.206;2022-09-29T16:08:44;2.87;;;1.60;;